Time;durP1;ratioP1;P1;durP2;ratioP2;P2;SDS_P1;SDS_P2;PMS_P1;PMS_P2;Temp;Humidity;BMP_temperature;BMP_pressure;BME280_temperature;BME280_humidity;BME280_pressure;Samples;Min_cycle;Max_cycle;Signal;HPM_P1;HPM_P2
2020/12/29 00:01:46;;;;;;;29.10;15.65;;;;;;;3.04;72.93;100185.91;1781826;79;21167;-58
2020/12/29 00:04:22;;;;;;;27.17;15.10;;;;;;;3.08;72.87;100186.98;1783898;79;21152;-58
2020/12/29 00:06:53;;;;;;;28.38;16.80;;;;;;;3.10;72.87;100183.00;1783476;79;28312;-57
2020/12/29 00:09:23;;;;;;;25.82;15.08;;;;;;;3.04;73.00;100179.41;1792113;79;21191;-59
2020/12/29 00:11:54;;;;;;;24.00;14.87;;;;;;;2.96;73.10;100184.56;1790956;78;21300;-59
2020/12/29 00:14:30;;;;;;;26.52;15.23;;;;;;;2.96;73.36;100172.03;1870463;75;22375;-59
2020/12/29 00:16:57;;;;;;;27.52;15.55;;;;;;;2.88;73.44;100185.41;1844678;77;21143;-59
2020/12/29 00:19:27;;;;;;;29.70;15.65;;;;;;;2.92;73.46;100201.68;1845573;76;23507;-59
2020/12/29 00:21:54;;;;;;;22.40;13.70;;;;;;;2.99;73.29;100184.84;1844390;76;21606;-59
2020/12/29 00:24:22;;;;;;;25.20;14.70;;;;;;;3.02;73.21;100192.48;1809782;78;21183;-59
2020/12/29 00:27:53;;;;;;;28.35;13.83;;;;;;;3.00;73.29;100191.73;1826252;76;22646;-59
2020/12/29 00:30:22;;;;;;;25.50;13.85;;;;;;;2.93;73.45;100196.87;1811281;78;21095;-58
2020/12/29 00:32:49;;;;;;;27.80;15.25;;;;;;;2.90;73.53;100196.56;1825531;78;21418;-58
2020/12/29 00:35:17;;;;;;;29.95;15.72;;;;;;;2.86;73.59;100191.16;1827136;77;21563;-59
2020/12/29 00:37:44;;;;;;;30.20;16.05;;;;;;;2.87;73.63;100169.89;1815849;77;21164;-59
2020/12/29 00:40:12;;;;;;;26.00;14.90;;;;;;;3.01;73.40;100166.13;1814459;78;22303;-59
2020/12/29 00:42:39;;;;;;;25.70;14.45;;;;;;;3.07;73.18;100173.59;1817596;77;21654;-59
2020/12/29 00:45:08;;;;;;;29.42;15.75;;;;;;;3.08;73.17;100175.28;1820912;78;21502;-59
2020/12/29 00:47:36;;;;;;;29.75;17.15;;;;;;;3.07;73.25;100162.36;1823449;78;21596;-59
2020/12/29 00:50:03;;;;;;;36.73;18.85;;;;;;;3.05;73.21;100165.04;1820178;78;21207;-59
2020/12/29 00:52:31;;;;;;;28.15;16.37;;;;;;;3.01;73.35;100172.63;1816149;78;21184;-59
2020/12/29 00:55:02;;;;;;;31.90;17.35;;;;;;;2.99;73.42;100184.84;1821568;78;21148;-59
2020/12/29 00:57:32;;;;;;;27.60;16.95;;;;;;;2.97;73.48;100189.29;1821009;78;21203;-59
2020/12/29 01:00:01;;;;;;;28.27;15.70;;;;;;;3.00;73.48;100178.73;1823417;78;21171;-59
2020/12/29 01:02:30;;;;;;;29.10;14.90;;;;;;;3.10;73.28;100177.34;1769786;80;21629;-60
2020/12/29 01:15:40;;;;;;;27.67;16.40;;;;;;;2.93;73.58;100150.09;1861639;74;22685;-58
2020/12/29 01:18:08;;;;;;;31.65;16.95;;;;;;;2.81;73.78;100149.41;1826168;77;21149;-59
2020/12/29 01:20:36;;;;;;;22.00;13.58;;;;;;;2.80;73.87;100161.57;1836101;77;22616;-59
2020/12/29 01:23:03;;;;;;;24.18;14.70;;;;;;;2.86;73.75;100163.86;1830925;77;21053;-59
2020/12/29 01:25:31;;;;;;;25.57;15.63;;;;;;;2.96;73.54;100163.77;1830190;77;21105;-59
2020/12/29 01:27:59;;;;;;;21.27;14.28;;;;;;;3.04;73.39;100169.02;1838443;76;21152;-59
2020/12/29 01:30:27;;;;;;;22.90;14.80;;;;;;;3.08;73.36;100171.85;1827336;77;21203;-57
2020/12/29 01:32:57;;;;;;;26.62;14.00;;;;;;;3.08;73.36;100161.45;1836544;76;22116;-59
2020/12/29 01:35:25;;;;;;;24.37;13.90;;;;;;;3.06;73.37;100162.83;1830538;77;21064;-59
2020/12/29 01:37:53;;;;;;;23.25;14.58;;;;;;;3.02;73.43;100162.59;1821723;77;21137;-59
2020/12/29 01:40:21;;;;;;;23.05;15.13;;;;;;;3.00;73.47;100153.22;1834193;77;21204;-57
2020/12/29 01:42:48;;;;;;;29.82;15.35;;;;;;;2.99;73.51;100143.25;1826183;77;21600;-58
2020/12/29 01:45:23;;;;;;;23.42;15.48;;;;;;;3.09;73.28;100147.52;1763375;79;22727;-57
2020/12/29 01:47:51;;;;;;;22.98;14.73;;;;;;;3.13;73.14;100145.98;1737531;81;21120;-58
2020/12/29 01:50:22;;;;;;;20.05;13.03;;;;;;;3.18;73.04;100139.69;1704754;82;21214;-58
2020/12/29 01:52:59;;;;;;;21.68;13.15;;;;;;;3.17;73.03;100136.25;1739142;81;21596;-57
2020/12/29 01:55:27;;;;;;;25.85;14.55;;;;;;;3.15;73.12;100130.30;1736857;82;21178;-58
2020/12/29 01:57:58;;;;;;;23.22;15.08;;;;;;;3.10;73.17;100133.14;1741917;82;21196;-58
2020/12/29 02:00:25;;;;;;;21.73;13.32;;;;;;;3.07;73.27;100130.70;1744564;82;21378;-58
2020/12/29 02:02:53;;;;;;;24.57;14.13;;;;;;;3.10;73.23;100121.91;1727312;81;22288;-57
2020/12/29 02:05:21;;;;;;;18.98;13.68;;;;;;;3.19;73.06;100117.50;1738166;82;21132;-58
2020/12/29 02:07:49;;;;;;;21.02;13.20;;;;;;;3.24;72.96;100114.66;1732045;82;21209;-58
2020/12/29 02:10:17;;;;;;;20.90;12.25;;;;;;;3.29;72.83;100099.18;1747308;81;21179;-60
2020/12/29 02:12:45;;;;;;;25.15;13.60;;;;;;;3.30;72.85;100114.34;1743576;82;21132;-59
2020/12/29 02:15:13;;;;;;;22.50;12.98;;;;;;;3.27;72.88;100114.50;1746757;81;21249;-59
2020/12/29 02:17:40;;;;;;;21.17;12.07;;;;;;;3.23;72.86;100122.08;1735568;82;21200;-59
2020/12/29 02:20:08;;;;;;;23.95;12.18;;;;;;;3.19;72.99;100088.08;1746264;82;21592;-59
2020/12/29 02:22:36;;;;;;;24.07;13.25;;;;;;;3.14;73.04;100093.52;1746687;82;21168;-59
2020/12/29 02:25:06;;;;;;;19.35;11.85;;;;;;;3.14;73.04;100090.48;1732042;81;21192;-59
2020/12/29 02:27:47;;;;;;;20.43;11.15;;;;;;;3.22;72.91;100087.44;1743106;81;22112;-59
2020/12/29 02:30:16;;;;;;;22.17;11.38;;;;;;;3.28;72.77;100097.98;1744214;82;21128;-59
2020/12/29 02:32:44;;;;;;;21.55;10.72;;;;;;;3.29;72.73;100097.87;1738897;82;21652;-59
2020/12/29 02:35:15;;;;;;;20.12;11.80;;;;;;;3.25;72.80;100100.75;1740656;82;21183;-59
2020/12/29 02:37:44;;;;;;;20.72;10.95;;;;;;;3.21;72.94;100109.62;1746377;82;21125;-58
2020/12/29 02:40:12;;;;;;;21.07;11.15;;;;;;;3.14;73.06;100107.38;1745298;82;21165;-59
2020/12/29 02:42:40;;;;;;;18.62;10.63;;;;;;;3.06;73.18;100101.73;1742647;82;21458;-59
2020/12/29 02:45:08;;;;;;;21.68;12.70;;;;;;;3.01;73.32;100095.09;1736036;82;21153;-59
2020/12/29 02:47:36;;;;;;;23.32;12.25;;;;;;;3.03;73.36;100096.70;1708013;82;21830;-59
2020/12/29 02:50:06;;;;;;;24.10;13.18;;;;;;;3.12;73.16;100096.19;1744133;82;21142;-59
2020/12/29 02:52:34;;;;;;;20.37;12.40;;;;;;;3.18;72.99;100083.78;1735755;82;22247;-59
2020/12/29 02:55:03;;;;;;;19.80;11.60;;;;;;;3.21;72.97;100084.92;1736074;82;21108;-60
2020/12/29 02:57:31;;;;;;;20.43;11.43;;;;;;;3.20;73.05;100087.16;1737078;82;21437;-60
2020/12/29 02:59:58;;;;;;;22.62;13.68;;;;;;;3.20;73.06;100090.59;1740822;82;21784;-59
2020/12/29 03:02:25;;;;;;;25.32;13.28;;;;;;;3.17;73.09;100097.25;1746783;82;21611;-59
2020/12/29 03:04:53;;;;;;;22.35;12.80;;;;;;;3.14;73.12;100080.52;1743639;82;21269;-59
2020/12/29 03:07:21;;;;;;;21.55;12.98;;;;;;;3.10;73.16;100085.52;1744664;82;21148;-59
2020/12/29 03:09:49;;;;;;;18.02;12.30;;;;;;;3.06;73.24;100090.05;1746786;82;21192;-59
2020/12/29 03:12:16;;;;;;;19.35;11.90;;;;;;;3.09;73.20;100092.48;1738084;82;21785;-58
2020/12/29 03:14:44;;;;;;;22.65;12.85;;;;;;;3.20;73.00;100086.70;1737613;82;21169;-59
2020/12/29 03:17:13;;;;;;;21.87;13.03;;;;;;;3.27;72.79;100089.33;1731809;82;21197;-59
2020/12/29 03:19:40;;;;;;;18.37;9.78;;;;;;;3.32;72.72;100097.72;1738454;82;21175;-59
2020/12/29 03:22:08;;;;;;;19.32;11.48;;;;;;;3.34;72.83;100089.36;1733613;80;21184;-58
2020/12/29 03:24:36;;;;;;;20.02;11.03;;;;;;;3.38;72.71;100084.86;1733396;82;22341;-58
2020/12/29 03:27:03;;;;;;;20.97;12.68;;;;;;;3.38;72.68;100088.77;1733301;82;21560;-59
2020/12/29 03:29:31;;;;;;;19.60;10.88;;;;;;;3.37;72.52;100084.47;1742603;82;21561;-58
2020/12/29 03:31:59;;;;;;;21.70;11.90;;;;;;;3.32;72.56;100080.81;1746251;82;21165;-59
2020/12/29 03:34:36;;;;;;;20.85;11.40;;;;;;;3.29;72.61;100072.34;1747337;82;21148;-58
2020/12/29 03:36:56;;;;;;;17.37;10.40;;;;;;;3.31;72.55;100071.36;1743534;82;21183;-58
2020/12/29 03:39:24;;;;;;;22.50;10.78;;;;;;;3.42;72.28;100062.95;1738020;82;21583;-58
2020/12/29 03:41:52;;;;;;;16.48;9.85;;;;;;;3.49;72.10;100049.14;1736943;82;22258;-58
2020/12/29 03:44:20;;;;;;;16.52;9.40;;;;;;;3.52;71.97;100050.27;1734051;81;21204;-59
2020/12/29 03:46:47;;;;;;;14.30;8.93;;;;;;;3.52;71.92;100047.20;1715603;82;21173;-58
2020/12/29 03:49:15;;;;;;;18.23;10.25;;;;;;;3.49;71.93;100059.07;1723482;82;21724;-57
2020/12/29 03:51:42;;;;;;;18.62;9.48;;;;;;;3.47;71.96;100086.11;1733587;82;21616;-57
2020/12/29 03:54:09;;;;;;;15.23;10.23;;;;;;;3.44;72.04;100088.41;1717947;82;22748;-58
2020/12/29 03:56:37;;;;;;;12.98;8.48;;;;;;;3.40;72.07;100090.81;1730143;82;21206;-58
2020/12/29 03:59:05;;;;;;;18.95;10.00;;;;;;;3.42;72.06;100095.45;1724427;82;21113;-58
2020/12/29 04:01:33;;;;;;;13.22;7.80;;;;;;;3.52;71.84;100082.80;1713988;82;21129;-58
2020/12/29 04:04:00;;;;;;;13.98;9.15;;;;;;;3.59;71.69;100069.81;1721806;82;21399;-57
2020/12/29 04:06:27;;;;;;;13.68;8.63;;;;;;;3.62;71.59;100069.64;1719000;82;21940;-56
2020/12/29 04:08:55;;;;;;;13.10;8.23;;;;;;;3.62;71.55;100079.22;1723612;82;21615;-56
2020/12/29 04:11:24;;;;;;;15.25;8.45;;;;;;;3.59;71.53;100067.67;1724110;82;21141;-55
2020/12/29 04:13:53;;;;;;;18.15;10.32;;;;;;;3.54;71.57;100054.92;1724477;82;21161;-56
2020/12/29 04:16:22;;;;;;;20.50;11.35;;;;;;;3.45;71.60;100057.58;1727086;82;21153;-56
2020/12/29 04:18:50;;;;;;;15.43;9.43;;;;;;;3.38;71.80;100054.95;1711585;82;21196;-56
2020/12/29 04:21:19;;;;;;;18.77;10.63;;;;;;;3.31;71.93;100049.69;1713842;82;21481;-56
2020/12/29 04:23:47;;;;;;;17.60;10.23;;;;;;;3.33;71.89;100057.80;1722384;82;22869;-56
2020/12/29 04:26:15;;;;;;;15.60;8.63;;;;;;;3.41;71.73;100044.35;1720101;82;21185;-57
2020/12/29 04:28:43;;;;;;;16.55;10.10;;;;;;;3.44;71.56;100043.36;1719021;82;21505;-56
2020/12/29 04:31:12;;;;;;;15.40;8.93;;;;;;;3.44;71.62;100028.58;1721441;82;21487;-57
2020/12/29 04:33:40;;;;;;;16.87;10.48;;;;;;;3.41;71.65;100033.95;1716075;82;21924;-56
2020/12/29 04:36:09;;;;;;;17.02;9.25;;;;;;;3.36;71.77;100038.56;1730882;82;21152;-56
2020/12/29 04:38:37;;;;;;;16.48;9.73;;;;;;;3.33;71.85;100042.19;1723651;82;21608;-57
2020/12/29 04:41:05;;;;;;;18.30;11.12;;;;;;;3.29;71.94;100032.87;1719761;82;21560;-56
2020/12/29 04:43:34;;;;;;;18.50;10.88;;;;;;;3.23;72.07;100040.16;1720852;81;21191;-57
2020/12/29 04:46:03;;;;;;;16.52;10.80;;;;;;;3.21;72.23;100038.12;1733135;82;21605;-56
2020/12/29 04:48:31;;;;;;;16.30;8.60;;;;;;;3.27;72.21;100039.09;1731662;82;21197;-56
2020/12/29 04:51:04;;;;;;;18.75;9.25;;;;;;;3.29;72.15;100034.64;1736744;82;21196;-56
2020/12/29 04:53:33;;;;;;;14.83;8.18;;;;;;;3.32;72.22;100031.88;1737240;82;21176;-56
2020/12/29 04:56:08;;;;;;;20.37;10.88;;;;;;;3.35;72.23;100030.41;1731556;82;22082;-56
2020/12/29 04:58:37;;;;;;;15.15;10.30;;;;;;;3.36;72.19;100029.47;1738020;82;21176;-56
2020/12/29 05:01:09;;;;;;;14.55;9.58;;;;;;;3.32;72.18;100022.77;1729420;82;21173;-56
2020/12/29 05:03:43;;;;;;;17.45;10.95;;;;;;;3.29;72.28;100011.23;1730631;82;21160;-55
2020/12/29 05:06:11;;;;;;;17.90;10.45;;;;;;;3.25;72.33;100024.88;1740792;82;21185;-56
2020/12/29 05:08:47;;;;;;;19.75;10.55;;;;;;;3.29;72.24;100027.66;1732888;82;22213;-56
2020/12/29 05:11:17;;;;;;;18.90;10.65;;;;;;;3.36;72.10;100030.77;1744547;81;21211;-57
2020/12/29 05:13:46;;;;;;;21.20;9.95;;;;;;;3.40;72.07;100041.86;1742785;82;21475;-57
2020/12/29 05:16:13;;;;;;;21.02;10.50;;;;;;;3.39;72.12;100047.50;1743242;82;21567;-58
2020/12/29 05:18:44;;;;;;;17.15;10.72;;;;;;;3.38;72.24;100054.09;1735202;81;21177;-58
2020/12/29 05:21:13;;;;;;;18.65;10.85;;;;;;;3.33;72.30;100040.89;1737166;82;22242;-57
2020/12/29 05:23:42;;;;;;;18.85;11.10;;;;;;;3.28;72.41;100029.08;1745567;82;21835;-57
2020/12/29 05:26:09;;;;;;;19.45;10.75;;;;;;;3.20;72.49;100035.98;1734254;82;21201;-57
2020/12/29 05:28:37;;;;;;;15.55;9.60;;;;;;;3.15;72.65;100028.91;1730608;82;21672;-57
2020/12/29 05:31:07;;;;;;;14.68;9.18;;;;;;;3.23;72.59;100015.47;1731253;82;21790;-56
2020/12/29 05:33:35;;;;;;;19.50;10.28;;;;;;;3.21;72.64;100016.02;1672979;85;21284;-57
2020/12/29 05:36:02;;;;;;;20.02;11.73;;;;;;;3.13;72.82;100035.48;1742472;82;21164;-58
2020/12/29 05:38:30;;;;;;;18.15;10.90;;;;;;;3.05;73.08;100050.66;1733499;82;21188;-57
2020/12/29 05:40:59;;;;;;;18.57;10.80;;;;;;;3.06;73.28;100067.95;1737375;81;21168;-57
2020/12/29 05:43:32;;;;;;;20.88;11.05;;;;;;;3.06;73.35;100056.69;1724035;80;21603;-57
2020/12/29 05:46:01;;;;;;;19.67;10.55;;;;;;;3.09;73.28;100044.83;1724201;82;22369;-57
2020/12/29 05:48:28;;;;;;;14.58;9.15;;;;;;;3.19;73.11;100045.17;1718005;82;21609;-57
2020/12/29 05:50:55;;;;;;;14.47;8.68;;;;;;;3.25;73.01;100039.17;1719768;82;21176;-56
2020/12/29 05:53:23;;;;;;;13.93;9.33;;;;;;;3.27;72.95;100039.92;1719176;82;21220;-56
2020/12/29 05:55:51;;;;;;;13.18;8.68;;;;;;;3.23;73.05;100035.83;1705637;82;21177;-58
2020/12/29 05:58:19;;;;;;;17.20;9.33;;;;;;;3.20;73.17;100033.39;1695787;82;22519;-57
2020/12/29 06:00:48;;;;;;;17.45;8.40;;;;;;;3.16;73.29;100032.72;1728803;82;21209;-57
2020/12/29 06:03:15;;;;;;;16.57;8.83;;;;;;;3.07;73.50;100018.91;1727198;82;21196;-58
2020/12/29 06:05:43;;;;;;;14.75;8.75;;;;;;;3.09;73.57;100011.03;1696332;82;21164;-58
2020/12/29 06:08:11;;;;;;;13.32;8.38;;;;;;;3.15;73.47;100014.13;1704038;82;22369;-57
2020/12/29 06:10:38;;;;;;;13.15;8.03;;;;;;;3.25;73.45;100007.14;1687669;82;21217;-58
2020/12/29 06:13:06;;;;;;;14.03;8.23;;;;;;;3.31;73.35;100004.18;1719726;82;21202;-58
2020/12/29 06:15:37;;;;;;;17.00;8.78;;;;;;;3.28;73.42;100010.88;1717031;82;21189;-60
2020/12/29 06:18:06;;;;;;;14.58;8.35;;;;;;;3.21;73.59;100002.58;1717834;82;21212;-57
2020/12/29 06:20:49;;;;;;;15.72;8.08;;;;;;;3.14;73.70;100023.31;1720944;82;21212;-57
2020/12/29 06:23:20;;;;;;;15.18;8.30;;;;;;;3.07;73.83;100011.11;1689701;82;22553;-57
2020/12/29 06:25:49;;;;;;;15.93;8.83;;;;;;;3.09;73.98;100013.20;1725959;82;21268;-57
2020/12/29 06:28:17;;;;;;;18.23;7.03;;;;;;;3.16;73.84;100011.06;1717241;81;21220;-56
2020/12/29 06:30:45;;;;;;;12.53;6.85;;;;;;;3.21;73.79;100014.72;1697026;82;21188;-57
2020/12/29 06:33:17;;;;;;;13.90;7.55;;;;;;;3.26;74.02;100012.26;1726211;82;21600;-57
2020/12/29 06:35:45;;;;;;;13.18;7.37;;;;;;;3.26;73.94;100009.66;1725511;82;22241;-59
2020/12/29 06:38:24;;;;;;;12.28;8.00;;;;;;;3.23;74.15;99999.42;1716968;82;21552;-57
2020/12/29 06:40:52;;;;;;;15.23;7.40;;;;;;;3.23;74.17;99999.86;1720797;82;21419;-57
2020/12/29 06:43:21;;;;;;;14.38;7.70;;;;;;;3.21;74.21;99985.67;1721309;81;21228;-58
2020/12/29 06:45:49;;;;;;;13.13;8.50;;;;;;;3.20;74.11;99994.86;1728668;82;21219;-58
2020/12/29 06:48:20;;;;;;;13.62;7.50;;;;;;;3.27;73.91;100000.91;1737696;82;22935;-57
2020/12/29 06:50:48;;;;;;;15.15;8.90;;;;;;;3.33;73.71;100007.08;1735216;80;21236;-56
2020/12/29 06:53:17;;;;;;;13.83;6.58;;;;;;;3.34;73.57;100013.11;1732820;82;21394;-59
2020/12/29 06:55:48;;;;;;;12.58;7.35;;;;;;;3.31;73.69;100005.48;1736368;82;21223;-63
2020/12/29 06:58:32;;;;;;;17.17;9.10;;;;;;;3.25;73.84;100011.88;1737230;82;21710;-62
2020/12/29 07:01:28;;;;;;;14.93;8.08;;;;;;;3.22;73.93;100021.61;1734458;82;21227;-65
2020/12/29 07:04:05;;;;;;;16.00;8.55;;;;;;;3.18;74.08;100020.08;1732644;80;21837;-62
2020/12/29 07:06:35;;;;;;;17.10;8.40;;;;;;;3.15;74.14;100014.13;1731225;82;21602;-62
2020/12/29 07:09:17;;;;;;;14.58;6.58;;;;;;;3.23;74.07;100015.47;1733776;82;21612;-60
2020/12/29 07:12:08;;;;;;;14.43;7.90;;;;;;;3.32;73.99;100008.47;1737836;82;21737;-63
2020/12/29 07:14:37;;;;;;;14.00;7.83;;;;;;;3.40;73.82;100001.08;1737412;82;21360;-63
2020/12/29 07:17:07;;;;;;;12.15;7.12;;;;;;;3.43;73.86;99997.01;1737465;82;21631;-63
2020/12/29 07:19:40;;;;;;;14.87;7.75;;;;;;;3.42;73.92;100000.52;1721565;82;21179;-61
2020/12/29 07:22:17;;;;;;;16.95;8.03;;;;;;;3.39;73.97;100007.19;1736237;82;21235;-65
2020/12/29 07:24:48;;;;;;;13.93;8.33;;;;;;;3.34;73.99;100002.24;1730430;82;21195;-61
2020/12/29 07:27:19;;;;;;;15.55;7.90;;;;;;;3.28;74.10;100001.78;1710410;82;21353;-62
2020/12/29 07:29:59;;;;;;;14.60;8.70;;;;;;;3.29;74.13;100006.03;1734900;82;21840;-63
2020/12/29 07:32:27;;;;;;;12.10;7.58;;;;;;;3.41;73.96;100012.31;1731267;82;21215;-67
2020/12/29 07:34:55;;;;;;;15.20;7.25;;;;;;;3.52;73.68;100000.84;1733321;82;21478;-63
2020/12/29 07:37:23;;;;;;;16.55;7.92;;;;;;;3.54;73.59;99997.22;1737485;82;21172;-60
2020/12/29 07:39:51;;;;;;;17.92;8.90;;;;;;;3.47;73.71;100005.00;1734628;82;21289;-61
2020/12/29 07:42:19;;;;;;;21.87;9.05;;;;;;;3.42;73.89;100012.70;1737694;82;21600;-61
2020/12/29 07:44:48;;;;;;;17.60;9.53;;;;;;;3.33;74.21;100004.95;1734875;80;21195;-61
2020/12/29 07:47:16;;;;;;;14.73;8.38;;;;;;;3.33;74.39;99997.16;1722529;81;22006;-62
2020/12/29 07:49:44;;;;;;;18.92;10.10;;;;;;;3.32;74.31;99985.06;1722867;82;21188;-62
2020/12/29 07:52:23;;;;;;;14.95;7.65;;;;;;;3.36;74.17;99989.16;1721508;82;21532;-62
2020/12/29 07:55:13;;;;;;;14.73;7.28;;;;;;;3.44;73.95;99980.45;1725658;82;21362;-61
2020/12/29 07:57:41;;;;;;;13.72;6.58;;;;;;;3.50;73.86;99983.19;1718769;82;21813;-60
2020/12/29 08:00:12;;;;;;;14.73;7.30;;;;;;;3.55;73.79;99988.97;1707100;82;21659;-61
2020/12/29 08:02:39;;;;;;;14.05;7.72;;;;;;;3.47;73.84;99990.69;1724355;82;21202;-60
2020/12/29 08:05:08;;;;;;;14.70;8.48;;;;;;;3.42;74.00;99997.92;1717482;82;21277;-60
2020/12/29 08:07:36;;;;;;;14.78;8.63;;;;;;;3.38;74.09;99990.37;1724918;82;21190;-61
2020/12/29 08:10:05;;;;;;;13.00;7.67;;;;;;;3.32;74.31;99982.46;1716975;82;21750;-62
2020/12/29 08:12:35;;;;;;;13.40;7.17;;;;;;;3.31;74.35;99955.63;1719503;82;21785;-60
2020/12/29 08:15:03;;;;;;;14.07;7.17;;;;;;;3.38;74.25;99961.32;1722837;82;21189;-59
2020/12/29 08:17:31;;;;;;;17.42;9.20;;;;;;;3.42;74.12;99961.50;1732088;82;21208;-61
2020/12/29 08:19:59;;;;;;;13.53;8.13;;;;;;;3.44;74.09;99951.02;1728380;82;21220;-61
2020/12/29 08:22:28;;;;;;;16.70;7.55;;;;;;;3.41;74.28;99942.91;1718228;82;21575;-60
2020/12/29 08:24:56;;;;;;;11.90;7.83;;;;;;;3.40;74.34;99948.23;1714348;82;21207;-65
2020/12/29 08:27:24;;;;;;;15.15;9.68;;;;;;;3.35;74.40;99939.38;1716822;82;21173;-63
2020/12/29 08:29:51;;;;;;;13.75;8.00;;;;;;;3.32;74.53;99944.75;1716952;82;21209;-61
2020/12/29 08:32:21;;;;;;;12.55;7.15;;;;;;;3.35;74.52;99945.41;1715458;82;21176;-60
2020/12/29 08:34:50;;;;;;;15.40;7.67;;;;;;;3.45;74.41;99943.13;1711976;82;21215;-65
2020/12/29 08:37:22;;;;;;;16.90;8.15;;;;;;;3.48;74.21;99932.55;1724192;82;21639;-61
2020/12/29 08:40:04;;;;;;;17.15;8.45;;;;;;;3.48;74.36;99940.36;1721664;82;21207;-62
2020/12/29 08:42:33;;;;;;;13.15;8.40;;;;;;;3.47;74.51;99937.37;1718924;82;23611;-65
2020/12/29 08:45:07;;;;;;;14.15;7.05;;;;;;;3.43;74.56;99938.48;1729439;82;21212;-63
2020/12/29 08:47:35;;;;;;;15.68;9.08;;;;;;;3.38;74.65;99926.21;1729956;82;21258;-64
2020/12/29 08:50:24;;;;;;;14.90;7.78;;;;;;;3.41;74.71;99928.61;1722542;82;21996;-62
2020/12/29 08:52:54;;;;;;;10.70;6.62;;;;;;;3.48;74.48;99917.38;1729918;82;21675;-62
2020/12/29 08:55:30;;;;;;;11.85;7.58;;;;;;;3.58;74.36;99912.48;1716551;82;21277;-63
2020/12/29 08:57:58;;;;;;;;;;;;;;;3.60;74.31;99913.23;1720814;82;21247;-59
2020/12/29 09:00:26;;;;;;;10.88;7.20;;;;;;;3.61;74.36;99901.91;1716885;82;20296;-59
2020/12/29 09:02:53;;;;;;;13.48;7.70;;;;;;;3.53;74.47;99893.23;1716715;82;21197;-61
2020/12/29 09:05:25;;;;;;;12.82;7.15;;;;;;;3.50;74.63;99877.84;1718988;82;21141;-61
2020/12/29 09:07:53;;;;;;;16.00;8.48;;;;;;;3.45;74.66;99878.10;1728874;81;22306;-62
2020/12/29 09:10:23;;;;;;;14.15;7.78;;;;;;;3.44;74.75;99879.02;1717666;82;21262;-63
2020/12/29 09:12:50;;;;;;;13.20;6.65;;;;;;;3.48;74.78;99871.86;1715680;81;21590;-58
2020/12/29 09:15:27;;;;;;;13.30;6.70;;;;;;;3.51;74.65;99862.14;1660853;84;21539;-61
2020/12/29 09:17:59;;;;;;;14.30;6.53;;;;;;;3.54;74.66;99868.44;1716260;82;21188;-61
2020/12/29 09:20:29;;;;;;;12.68;6.58;;;;;;;3.54;74.78;99867.61;1713946;82;21809;-60
2020/12/29 09:23:03;;;;;;;12.70;8.00;;;;;;;3.49;74.83;99866.58;1723121;82;21723;-61
2020/12/29 09:25:34;;;;;;;12.35;7.65;;;;;;;3.46;74.94;99875.03;1704381;82;21619;-60
2020/12/29 09:28:27;;;;;;;11.55;6.42;;;;;;;3.41;74.99;99868.78;1722980;82;21196;-61
2020/12/29 09:31:08;;;;;;;11.63;5.65;;;;;;;3.43;75.14;99862.20;1715163;82;21197;-62
2020/12/29 09:33:37;;;;;;;13.65;7.87;;;;;;;3.52;74.94;99853.39;1721787;82;21364;-61
2020/12/29 09:36:23;;;;;;;12.20;6.75;;;;;;;3.61;74.87;99842.07;1717976;82;21637;-61
2020/12/29 09:38:52;;;;;;;13.53;6.70;;;;;;;3.65;74.87;99828.80;1660257;84;21211;-61
2020/12/29 09:41:19;;;;;;;12.82;7.95;;;;;;;3.65;74.86;99817.09;1719294;82;21612;-60
2020/12/29 09:43:48;;;;;;;15.43;7.15;;;;;;;3.60;74.92;99815.23;1720282;82;21199;-61
2020/12/29 09:46:16;;;;;;;13.85;7.33;;;;;;;3.56;75.00;99817.63;1728354;81;21255;-62
2020/12/29 09:48:45;;;;;;;12.78;6.67;;;;;;;3.50;75.12;99825.34;1733241;82;21187;-61
2020/12/29 09:51:13;;;;;;;15.45;6.22;;;;;;;3.55;75.15;99810.77;1729882;82;21192;-61
2020/12/29 09:53:41;;;;;;;10.75;5.75;;;;;;;3.67;74.97;99800.91;1724552;82;21780;-59
2020/12/29 09:56:08;;;;;;;10.90;6.20;;;;;;;3.73;74.96;99794.48;1724278;82;21678;-63
2020/12/29 09:58:35;;;;;;;11.10;6.58;;;;;;;3.74;74.95;99796.17;1724513;81;21203;-64
2020/12/29 10:01:04;;;;;;;14.78;7.17;;;;;;;3.72;75.07;99785.85;1728953;82;21164;-58
2020/12/29 10:03:32;;;;;;;12.45;6.92;;;;;;;3.69;75.15;99779.53;1720931;82;21632;-66
2020/12/29 10:06:00;;;;;;;11.63;5.87;;;;;;;3.64;75.21;99772.95;1726410;82;21659;-60
2020/12/29 10:08:27;;;;;;;9.93;5.42;;;;;;;3.61;75.29;99758.82;1728159;82;21651;-60
2020/12/29 10:10:56;;;;;;;10.72;6.33;;;;;;;3.69;75.18;99753.98;1726170;82;21410;-60
2020/12/29 10:13:24;;;;;;;9.03;5.50;;;;;;;3.71;75.12;99762.05;1725423;82;21833;-59
2020/12/29 10:15:51;;;;;;;12.82;7.05;;;;;;;3.71;75.25;99761.22;1726447;82;21212;-63
2020/12/29 10:18:20;;;;;;;11.78;6.03;;;;;;;3.70;75.31;99752.59;1726717;82;21631;-61
2020/12/29 10:20:49;;;;;;;10.18;5.30;;;;;;;3.68;75.33;99764.87;1726650;82;21804;-61
2020/12/29 10:23:17;;;;;;;10.03;5.33;;;;;;;3.69;75.45;99767.82;1713960;82;22041;-73
2020/12/29 10:25:45;;;;;;;10.00;6.00;;;;;;;3.77;75.32;99755.66;1722930;82;21220;-58
2020/12/29 10:28:12;;;;;;;8.60;5.20;;;;;;;3.83;75.17;99755.28;1702201;82;21148;-59
2020/12/29 10:30:39;;;;;;;10.53;5.70;;;;;;;3.80;75.16;99735.95;1730324;82;21195;-59
2020/12/29 10:33:07;;;;;;;9.83;5.17;;;;;;;3.76;75.36;99730.55;1724921;82;21180;-60
2020/12/29 10:35:37;;;;;;;9.93;5.20;;;;;;;3.74;75.48;99718.58;1696790;84;22285;-58
2020/12/29 10:38:05;;;;;;;10.82;5.25;;;;;;;3.68;75.61;99711.53;1675457;84;21938;-60
2020/12/29 10:40:33;;;;;;;10.70;5.35;;;;;;;3.74;75.62;99717.28;1686762;84;21196;-60
2020/12/29 10:43:01;;;;;;;9.33;5.05;;;;;;;3.85;75.56;99720.88;1685799;84;21588;-59
2020/12/29 10:45:29;;;;;;;10.58;5.28;;;;;;;3.94;75.51;99725.97;1679980;83;21243;-59
2020/12/29 10:47:57;;;;;;;9.50;5.30;;;;;;;3.97;75.32;99719.27;1683838;83;21232;-63
2020/12/29 10:50:24;;;;;;;10.78;6.10;;;;;;;3.93;75.44;99728.19;1693201;83;21230;-59
2020/12/29 10:52:52;;;;;;;10.78;5.80;;;;;;;3.87;75.45;99724.22;1694454;83;21223;-59
2020/12/29 10:55:19;;;;;;;14.93;6.45;;;;;;;3.85;75.57;99721.33;1689440;84;21690;-60
2020/12/29 10:57:46;;;;;;;9.45;5.17;;;;;;;3.84;75.57;99728.30;1676172;85;21199;-59
2020/12/29 11:00:14;;;;;;;12.37;6.00;;;;;;;3.88;75.51;99727.20;1680308;84;21394;-60
2020/12/29 11:02:41;;;;;;;9.35;5.40;;;;;;;4.01;75.33;99739.44;1698439;83;21808;-60
2020/12/29 11:05:09;;;;;;;9.08;5.65;;;;;;;4.11;75.32;99734.01;1703283;83;21222;-58
2020/12/29 11:07:36;;;;;;;10.03;4.70;;;;;;;4.20;75.09;99725.63;1683200;84;22139;-60
2020/12/29 11:10:07;;;;;;;10.78;4.72;;;;;;;4.24;75.03;99730.17;1693355;82;21199;-60
2020/12/29 11:12:35;;;;;;;8.00;5.20;;;;;;;4.23;74.91;99718.89;1690763;84;21213;-59
2020/12/29 11:15:04;;;;;;;9.38;4.78;;;;;;;4.21;74.85;99725.97;1683636;83;21226;-58
2020/12/29 11:17:32;;;;;;;9.40;5.35;;;;;;;4.13;74.97;99726.93;1680164;84;21144;-59
2020/12/29 11:20:02;;;;;;;9.10;5.08;;;;;;;4.13;75.04;99716.99;1680657;84;21221;-72
2020/12/29 11:22:30;;;;;;;11.00;5.85;;;;;;;4.20;74.96;99703.49;1692477;83;21219;-59
2020/12/29 11:24:58;;;;;;;8.85;5.90;;;;;;;4.23;74.90;99711.56;1683612;84;22802;-58
2020/12/29 11:27:25;;;;;;;9.58;5.25;;;;;;;4.21;75.03;99718.64;1686629;83;21231;-59
2020/12/29 11:29:53;;;;;;;10.15;5.58;;;;;;;4.18;75.11;99723.56;1691185;83;21246;-60
2020/12/29 11:32:22;;;;;;;9.10;5.40;;;;;;;4.18;75.13;99712.32;1696591;83;21219;-60
2020/12/29 11:34:50;;;;;;;8.43;5.28;;;;;;;4.16;75.19;99718.10;1683671;84;21681;-60
2020/12/29 11:37:19;;;;;;;9.58;5.05;;;;;;;4.22;75.06;99716.38;1676731;85;21653;-60
2020/12/29 11:39:47;;;;;;;13.62;4.33;;;;;;;4.33;74.86;99718.31;1662728;84;21226;-59
2020/12/29 11:42:16;;;;;;;9.50;4.87;;;;;;;4.43;74.61;99716.78;1684904;83;21152;-59
2020/12/29 11:44:44;;;;;;;8.43;4.67;;;;;;;4.49;74.54;99715.09;1670787;85;21680;-59
2020/12/29 11:47:11;;;;;;;8.03;4.72;;;;;;;4.46;74.49;99715.28;1689286;83;21154;-59
2020/12/29 11:49:39;;;;;;;8.78;4.92;;;;;;;4.45;74.61;99729.23;1685486;85;23409;-59